createdAt,value
2023-01-18T00:01:08.502Z,36.90
2023-01-18T00:03:42.636Z,36.57
2023-01-18T00:06:13.014Z,43.83
2023-01-18T00:08:44.130Z,36.60
2023-01-18T00:11:16.256Z,36.20
2023-01-18T00:13:46.297Z,36.20
2023-01-18T00:16:18.421Z,35.67
2023-01-18T00:18:52.851Z,34.27
2023-01-18T00:21:22.870Z,34.33
2023-01-18T00:23:53.693Z,33.93
2023-01-18T00:26:23.273Z,33.37
2023-01-18T00:28:52.795Z,34.40
2023-01-18T00:31:23.393Z,34.23
2023-01-18T00:33:53.036Z,35.03
2023-01-18T00:36:23.268Z,33.50
2023-01-18T00:38:54.583Z,31.53
2023-01-18T00:41:25.279Z,31.53
2023-01-18T00:43:54.175Z,33.60
2023-01-18T00:46:25.551Z,33.27
2023-01-18T00:48:56.253Z,33.80
2023-01-18T00:51:26.815Z,35.53
2023-01-18T00:53:57.687Z,35.03
2023-01-18T00:56:26.945Z,33.13
2023-01-18T00:58:56.344Z,32.00
2023-01-18T01:01:26.086Z,33.47
2023-01-18T01:04:12.672Z,34.27
2023-01-18T01:06:47.925Z,32.50
2023-01-18T01:09:21.184Z,32.83
2023-01-18T01:12:08.602Z,32.80
2023-01-18T01:14:57.689Z,32.43
2023-01-18T01:17:44.763Z,32.17
2023-01-18T01:20:31.855Z,31.83
2023-01-18T01:23:28.340Z,31.13
2023-01-18T01:26:05.699Z,30.93
2023-01-18T01:28:35.924Z,30.57
2023-01-18T01:31:06.759Z,31.93
2023-01-18T01:33:37.398Z,30.57
2023-01-18T01:36:08.756Z,31.17
2023-01-18T01:38:38.145Z,28.47
2023-01-18T01:41:11.229Z,27.83
2023-01-18T01:43:43.419Z,28.80
2023-01-18T01:46:29.719Z,28.93
2023-01-18T01:49:04.695Z,28.60
2023-01-18T01:51:36.414Z,26.87
2023-01-18T01:54:08.683Z,27.70
2023-01-18T01:56:39.963Z,27.40
2023-01-18T01:59:10.562Z,28.00
2023-01-18T02:01:44.070Z,27.40
2023-01-18T02:04:14.078Z,25.80
2023-01-18T02:06:43.176Z,26.00
2023-01-18T02:09:16.143Z,25.73
2023-01-18T02:11:46.969Z,26.47
2023-01-18T02:14:17.749Z,26.80
2023-01-18T02:17:06.641Z,24.80
2023-01-18T02:20:01.980Z,25.90
2023-01-18T02:22:46.593Z,28.37
2023-01-18T02:25:46.929Z,26.00
2023-01-18T02:28:19.913Z,26.90
2023-01-18T02:30:54.336Z,26.17
2023-01-18T02:33:30.020Z,23.97
2023-01-18T02:36:01.885Z,25.30
2023-01-18T02:38:37.707Z,27.00
2023-01-18T02:41:14.611Z,25.03
2023-01-18T02:44:03.816Z,26.07
2023-01-18T02:46:39.085Z,24.27
2023-01-18T02:49:10.747Z,25.33
2023-01-18T02:51:40.438Z,24.33
2023-01-18T02:54:11.967Z,25.57
2023-01-18T02:56:45.138Z,24.47
2023-01-18T02:59:20.253Z,23.90
2023-01-18T03:01:52.325Z,24.30
2023-01-18T03:04:26.448Z,24.47
2023-01-18T03:07:00.608Z,22.87
2023-01-18T03:09:31.553Z,24.80
2023-01-18T03:12:08.446Z,22.20
2023-01-18T03:14:49.501Z,23.63
2023-01-18T03:17:27.667Z,23.30
2023-01-18T03:20:08.887Z,22.90
2023-01-18T03:22:58.016Z,22.13
2023-01-18T03:25:30.496Z,20.80
2023-01-18T03:28:21.595Z,21.13
2023-01-18T03:31:11.437Z,22.20
2023-01-18T03:33:46.177Z,20.63
2023-01-18T03:36:19.686Z,20.57
2023-01-18T03:38:55.032Z,21.00
2023-01-18T03:41:28.357Z,19.37
2023-01-18T03:44:00.936Z,18.73
2023-01-18T03:46:34.080Z,19.67
2023-01-18T03:49:03.599Z,19.07
2023-01-18T03:51:47.584Z,19.50
2023-01-18T03:54:22.519Z,18.07
2023-01-18T03:56:56.046Z,20.00
2023-01-18T03:59:27.112Z,19.47
2023-01-18T04:01:57.700Z,18.50
2023-01-18T04:04:27.066Z,18.47
2023-01-18T04:06:58.213Z,16.93
2023-01-18T04:09:27.718Z,17.37
2023-01-18T04:11:56.906Z,19.07
2023-01-18T04:14:26.160Z,18.10
2023-01-18T04:16:56.726Z,18.30
2023-01-18T04:19:25.796Z,17.07
2023-01-18T04:21:55.390Z,18.47
2023-01-18T04:24:24.753Z,17.43
2023-01-18T04:26:53.861Z,18.93
2023-01-18T04:29:23.175Z,19.83
2023-01-18T04:31:52.515Z,18.03
2023-01-18T04:34:24.196Z,17.73
2023-01-18T04:36:53.875Z,19.47
2023-01-18T04:39:23.059Z,19.03
2023-01-18T04:41:52.253Z,19.10
2023-01-18T04:44:21.367Z,18.73
2023-01-18T04:46:51.371Z,20.47
2023-01-18T04:49:20.840Z,19.67
2023-01-18T04:51:51.476Z,19.10
2023-01-18T04:54:20.696Z,20.17
2023-01-18T04:56:49.948Z,19.20
2023-01-18T04:59:19.187Z,20.00
2023-01-18T05:01:48.341Z,20.50
2023-01-18T05:04:17.494Z,20.47
2023-01-18T05:06:46.677Z,20.97
2023-01-18T05:09:17.617Z,19.80
2023-01-18T05:11:46.753Z,19.47
2023-01-18T05:14:15.917Z,21.30
2023-01-18T05:16:45.043Z,21.07
2023-01-18T05:19:14.186Z,21.07
2023-01-18T05:21:43.309Z,20.03
2023-01-18T05:24:12.410Z,19.93
2023-01-18T05:26:42.987Z,22.27
2023-01-18T05:29:12.275Z,21.90
2023-01-18T05:31:41.882Z,23.13
2023-01-18T05:34:11.201Z,21.67
2023-01-18T05:36:40.273Z,18.53
2023-01-18T05:39:09.656Z,21.03
2023-01-18T05:41:38.839Z,20.80
2023-01-18T05:44:10.484Z,19.27
2023-01-18T05:46:39.823Z,18.97
2023-01-18T05:49:09.155Z,19.83
2023-01-18T05:51:38.421Z,17.77
2023-01-18T05:54:07.987Z,19.30
2023-01-18T05:56:37.445Z,18.93
2023-01-18T05:59:07.332Z,17.87
2023-01-18T06:01:38.189Z,18.23
2023-01-18T06:04:07.891Z,17.47
2023-01-18T06:06:37.223Z,16.90
2023-01-18T06:09:06.793Z,16.73
2023-01-18T06:11:36.223Z,15.03
2023-01-18T06:14:05.558Z,15.50
2023-01-18T06:16:35.117Z,17.23
2023-01-18T06:19:05.985Z,16.73
2023-01-18T06:21:35.488Z,13.90
2023-01-18T06:24:05.145Z,14.07
2023-01-18T06:26:34.767Z,15.17
2023-01-18T06:29:04.669Z,14.07
2023-01-18T06:31:33.915Z,13.83
2023-01-18T06:34:09.635Z,14.03
2023-01-18T06:36:38.954Z,12.97
2023-01-18T06:39:08.836Z,13.70
2023-01-18T06:41:38.291Z,13.27
2023-01-18T06:44:07.945Z,12.27
2023-01-18T06:46:37.466Z,13.90
2023-01-18T06:49:08.362Z,11.73
2023-01-18T06:51:37.534Z,14.40
2023-01-18T06:54:07.311Z,12.47
2023-01-18T06:56:37.393Z,12.53
2023-01-18T06:59:08.488Z,11.87
2023-01-18T07:01:38.116Z,11.03
2023-01-18T07:04:09.105Z,9.10
2023-01-18T07:06:38.668Z,12.13
2023-01-18T07:09:28.986Z,10.03
2023-01-18T07:12:11.931Z,11.57
2023-01-18T07:14:58.673Z,12.27
2023-01-18T07:17:28.184Z,10.43
2023-01-18T07:19:59.067Z,10.47
2023-01-18T07:22:28.421Z,10.77
2023-01-18T07:24:57.627Z,10.23
2023-01-18T07:27:27.142Z,10.83
2023-01-18T07:29:56.511Z,9.13
2023-01-18T07:32:26.613Z,9.70
2023-01-18T07:34:58.577Z,9.77
2023-01-18T07:37:31.782Z,9.27
2023-01-18T07:40:01.340Z,9.10
2023-01-18T07:42:30.744Z,8.57
2023-01-18T07:44:59.993Z,8.00
2023-01-18T07:47:29.484Z,8.90
2023-01-18T07:49:58.928Z,8.27
2023-01-18T07:52:29.885Z,8.67
2023-01-18T07:54:59.272Z,7.13
2023-01-18T07:57:29.000Z,8.47
2023-01-18T07:59:58.271Z,7.57
2023-01-18T08:02:27.808Z,7.70
2023-01-18T08:04:57.423Z,6.27
2023-01-18T08:07:27.168Z,6.63
2023-01-18T08:09:58.368Z,6.07
2023-01-18T08:12:27.715Z,6.37
2023-01-18T08:14:57.103Z,7.13
2023-01-18T08:17:28.213Z,6.87
2023-01-18T08:19:57.736Z,6.93
2023-01-18T08:22:27.254Z,6.63
2023-01-18T08:24:57.900Z,5.67
2023-01-18T08:27:28.439Z,5.03
2023-01-18T08:29:58.225Z,5.13
2023-01-18T08:32:27.659Z,4.77
2023-01-18T08:34:57.473Z,5.50
2023-01-18T08:37:26.778Z,6.33
2023-01-18T08:39:57.417Z,5.27
2023-01-18T08:42:26.816Z,6.27
2023-01-18T08:44:56.171Z,4.33
2023-01-18T08:47:26.044Z,4.93
2023-01-18T08:49:55.713Z,5.60
2023-01-18T08:52:26.485Z,7.07
2023-01-18T08:54:57.182Z,5.90
2023-01-18T08:57:26.450Z,5.90
2023-01-18T08:59:56.445Z,5.63
2023-01-18T09:02:26.439Z,5.83
2023-01-18T09:04:55.797Z,5.33
2023-01-18T09:07:28.113Z,5.23
2023-01-18T09:09:58.821Z,5.43
2023-01-18T09:12:30.055Z,5.07
2023-01-18T09:15:00.647Z,5.10
2023-01-18T09:17:31.491Z,5.40
2023-01-18T09:20:00.931Z,5.20
2023-01-18T09:22:38.859Z,4.60
2023-01-18T09:25:13.836Z,4.40
2023-01-18T09:27:45.606Z,4.57
2023-01-18T09:30:19.219Z,4.00
2023-01-18T09:32:53.261Z,3.87
2023-01-18T09:35:26.227Z,4.10
2023-01-18T09:37:59.727Z,4.20
2023-01-18T09:40:44.698Z,4.20
2023-01-18T09:43:33.732Z,4.47
2023-01-18T09:46:03.260Z,4.70
2023-01-18T09:48:38.283Z,4.67
2023-01-18T09:51:13.771Z,3.80
2023-01-18T09:53:55.362Z,3.63
2023-01-18T09:56:29.197Z,4.40
2023-01-18T09:59:08.195Z,4.67
2023-01-18T10:01:38.413Z,4.40
2023-01-18T10:04:15.504Z,4.50
2023-01-18T10:06:49.820Z,5.03
2023-01-18T10:09:23.086Z,4.23
2023-01-18T10:12:00.039Z,4.40
2023-01-18T10:14:48.814Z,3.97
2023-01-18T10:17:20.898Z,4.23
2023-01-18T10:19:50.501Z,3.97
2023-01-18T10:22:23.992Z,4.07
2023-01-18T10:25:00.075Z,5.43
2023-01-18T10:28:07.818Z,5.53
2023-01-18T10:30:56.041Z,5.97
2023-01-18T10:33:27.530Z,4.57
2023-01-18T10:36:01.543Z,3.97
2023-01-18T10:38:32.763Z,3.90
2023-01-18T10:41:04.280Z,4.07
2023-01-18T10:43:41.048Z,4.10
2023-01-18T10:46:15.875Z,4.03
2023-01-18T10:48:48.401Z,4.17
2023-01-18T10:51:33.654Z,5.03
2023-01-18T10:54:25.495Z,4.53
2023-01-18T10:57:09.914Z,4.90
2023-01-18T10:59:43.261Z,5.10
2023-01-18T11:02:25.079Z,4.80
2023-01-18T11:04:58.446Z,4.67
2023-01-18T11:07:29.780Z,4.43
2023-01-18T11:10:04.858Z,5.00
2023-01-18T11:12:37.691Z,5.00
2023-01-18T11:15:27.526Z,5.70
2023-01-18T11:18:17.828Z,5.57
2023-01-18T11:20:54.439Z,5.53
2023-01-18T11:23:34.277Z,5.73
2023-01-18T11:26:20.379Z,5.03
2023-01-18T11:28:56.221Z,5.23
2023-01-18T11:31:29.132Z,5.83
2023-01-18T11:34:01.767Z,5.50
2023-01-18T11:36:40.098Z,6.03
2023-01-18T11:39:25.160Z,5.77
2023-01-18T11:42:18.081Z,5.87
2023-01-18T11:44:52.304Z,5.33
2023-01-18T11:47:29.018Z,5.80
2023-01-18T11:50:21.017Z,5.90
2023-01-18T11:52:54.949Z,6.27
2023-01-18T11:55:31.865Z,5.10
2023-01-18T11:58:02.318Z,5.17
2023-01-18T12:00:42.773Z,4.70
2023-01-18T12:03:47.729Z,5.00
2023-01-18T12:06:30.797Z,5.20
2023-01-18T12:09:14.746Z,4.90
2023-01-18T12:12:06.514Z,4.23
2023-01-18T12:14:58.973Z,4.40
2023-01-18T12:17:45.988Z,4.27
2023-01-18T12:20:27.924Z,4.40
2023-01-18T12:23:24.195Z,4.80
2023-01-18T12:26:12.265Z,4.17
2023-01-18T12:28:58.665Z,4.10
2023-01-18T12:31:48.980Z,4.20
2023-01-18T12:34:24.038Z,6.47
2023-01-18T12:37:08.447Z,5.77
2023-01-18T12:39:54.931Z,5.30
2023-01-18T12:42:39.119Z,4.60
2023-01-18T12:45:22.002Z,4.77
2023-01-18T12:48:00.992Z,4.33
2023-01-18T12:50:37.800Z,4.27
2023-01-18T12:53:16.423Z,4.80
2023-01-18T12:55:49.516Z,4.30
2023-01-18T12:58:23.832Z,3.47
2023-01-18T13:00:58.729Z,4.07
2023-01-18T13:03:34.085Z,3.70
2023-01-18T13:06:05.005Z,3.93
2023-01-18T13:08:44.863Z,3.90
2023-01-18T13:11:17.661Z,3.40
2023-01-18T13:13:47.885Z,3.90
2023-01-18T13:16:45.648Z,3.47
2023-01-18T13:19:20.613Z,3.97
2023-01-18T13:22:01.250Z,4.57
2023-01-18T13:24:43.564Z,5.30
2023-01-18T13:27:14.699Z,5.83
2023-01-18T13:29:45.484Z,5.87
2023-01-18T13:32:31.968Z,5.97
2023-01-18T13:35:19.698Z,6.30
2023-01-18T13:37:56.288Z,5.93
2023-01-18T13:40:34.837Z,5.60
2023-01-18T13:43:06.027Z,5.57
2023-01-18T13:46:03.165Z,5.47
2023-01-18T13:48:47.066Z,4.87
2023-01-18T13:51:52.325Z,5.30
2023-01-18T13:55:01.987Z,4.70
2023-01-18T13:57:34.490Z,4.20
2023-01-18T14:00:05.408Z,4.60
2023-01-18T14:02:42.655Z,4.53
2023-01-18T14:05:35.489Z,5.07
2023-01-18T14:08:05.999Z,5.80
2023-01-18T14:10:38.430Z,5.03
2023-01-18T14:13:15.183Z,5.07
2023-01-18T14:15:53.570Z,5.63
2023-01-18T14:18:25.841Z,5.10
2023-01-18T14:21:19.499Z,5.43
2023-01-18T14:24:28.997Z,5.83
2023-01-18T14:26:59.531Z,6.10
2023-01-18T14:29:43.511Z,5.47
2023-01-18T14:32:18.499Z,5.87
2023-01-18T14:34:47.757Z,5.63
2023-01-18T14:37:29.172Z,6.00
2023-01-18T14:40:06.551Z,6.40
2023-01-18T14:42:36.434Z,6.57
2023-01-18T14:45:08.650Z,7.80
2023-01-18T14:47:38.846Z,8.00
2023-01-18T14:50:20.300Z,8.60
2023-01-18T14:52:51.961Z,8.43
2023-01-18T14:55:31.616Z,8.70
2023-01-18T14:58:15.611Z,8.50
2023-01-18T15:00:52.142Z,7.97
2023-01-18T15:03:27.769Z,7.13
2023-01-18T15:06:02.712Z,6.90
2023-01-18T15:08:34.510Z,6.80
2023-01-18T15:11:06.766Z,5.90
2023-01-18T15:13:49.429Z,5.90
2023-01-18T15:16:26.906Z,6.53
2023-01-18T15:18:57.695Z,6.60
2023-01-18T15:21:32.853Z,6.90
2023-01-18T15:24:07.953Z,7.07
2023-01-18T15:26:41.569Z,6.87
2023-01-18T15:29:19.139Z,7.87
2023-01-18T15:31:56.309Z,7.47
2023-01-18T15:34:30.348Z,7.87
2023-01-18T15:37:02.173Z,8.77
2023-01-18T15:39:33.184Z,8.73
2023-01-18T15:42:07.147Z,8.97
2023-01-18T15:44:46.062Z,8.77
2023-01-18T15:47:25.229Z,9.37
2023-01-18T15:49:57.424Z,9.53
2023-01-18T15:52:39.081Z,9.57
2023-01-18T15:55:18.987Z,10.23
2023-01-18T15:57:59.221Z,9.07
2023-01-18T16:00:37.159Z,9.13
2023-01-18T16:03:18.334Z,9.87
2023-01-18T16:06:08.330Z,9.20
2023-01-18T16:08:37.679Z,7.90
2023-01-18T16:11:07.177Z,7.93
2023-01-18T16:13:38.725Z,8.93
2023-01-18T16:16:19.742Z,8.90
2023-01-18T16:19:01.290Z,10.80
2023-01-18T16:21:45.984Z,11.90
2023-01-18T16:24:37.246Z,11.93
2023-01-18T16:27:12.689Z,13.07
2023-01-18T16:29:47.182Z,13.70
2023-01-18T16:32:33.114Z,14.70
2023-01-18T16:35:14.640Z,15.43
2023-01-18T16:37:46.221Z,15.33
2023-01-18T16:40:19.537Z,17.20
2023-01-18T16:43:02.031Z,15.77
2023-01-18T16:45:36.024Z,14.87
2023-01-18T16:48:08.179Z,14.93
2023-01-18T16:50:40.901Z,14.53
2023-01-18T16:53:12.471Z,15.57
2023-01-18T16:55:45.020Z,14.40
2023-01-18T16:58:16.598Z,14.87
2023-01-18T17:00:53.971Z,15.27
2023-01-18T17:03:23.652Z,16.10
2023-01-18T17:05:56.163Z,17.17
2023-01-18T17:08:26.430Z,16.43
2023-01-18T17:10:57.205Z,16.70
2023-01-18T17:13:28.191Z,16.10
2023-01-18T17:15:58.959Z,16.73
2023-01-18T17:18:29.475Z,18.03
2023-01-18T17:21:01.757Z,16.83
2023-01-18T17:23:31.998Z,16.47
2023-01-18T17:26:02.639Z,17.97
2023-01-18T17:28:33.726Z,17.17
2023-01-18T17:31:04.168Z,18.40
2023-01-18T17:33:38.927Z,17.27
2023-01-18T17:36:11.347Z,17.63
2023-01-18T17:38:41.827Z,16.37
2023-01-18T17:41:26.571Z,17.60
2023-01-18T17:43:59.391Z,17.60
2023-01-18T17:46:30.024Z,18.17
2023-01-18T17:49:00.634Z,18.67
2023-01-18T17:51:34.772Z,19.17
2023-01-18T17:54:13.153Z,19.07
2023-01-18T17:56:51.168Z,18.53
2023-01-18T17:59:21.937Z,19.30
2023-01-18T18:01:53.802Z,20.03
2023-01-18T18:04:25.097Z,19.30
2023-01-18T18:06:59.071Z,18.93
2023-01-18T18:09:30.466Z,20.67
2023-01-18T18:12:01.693Z,20.17
2023-01-18T18:14:35.056Z,21.17
2023-01-18T18:17:11.893Z,20.93
2023-01-18T18:19:43.345Z,21.37
2023-01-18T18:22:18.257Z,20.50
2023-01-18T18:24:50.777Z,20.40
2023-01-18T18:27:26.562Z,21.67
2023-01-18T18:29:59.457Z,20.73
2023-01-18T18:32:31.682Z,20.47
2023-01-18T18:35:03.883Z,20.27
2023-01-18T18:37:38.259Z,20.60
2023-01-18T18:40:10.732Z,20.77
2023-01-18T18:42:45.299Z,22.17
2023-01-18T18:45:21.137Z,21.07
2023-01-18T18:47:54.586Z,21.80
2023-01-18T18:50:28.568Z,22.13
2023-01-18T18:53:02.871Z,21.97
2023-01-18T18:55:34.807Z,23.57
2023-01-18T18:58:09.127Z,22.97
2023-01-18T19:00:41.083Z,24.43
2023-01-18T19:03:11.837Z,24.13
2023-01-18T19:05:44.999Z,24.87
2023-01-18T19:08:25.920Z,24.90
2023-01-18T19:10:57.902Z,26.17
2023-01-18T19:13:33.908Z,25.67
2023-01-18T19:16:08.973Z,25.40
2023-01-18T19:18:41.281Z,27.47
2023-01-18T19:21:14.367Z,26.40
2023-01-18T19:23:47.722Z,27.87
2023-01-18T19:26:20.367Z,28.13
2023-01-18T19:28:51.328Z,28.77
2023-01-18T19:31:22.488Z,27.47
2023-01-18T19:33:57.484Z,28.50
2023-01-18T19:36:31.822Z,28.33
2023-01-18T19:39:09.352Z,27.77
2023-01-18T19:41:50.325Z,28.10
2023-01-18T19:44:22.122Z,27.70
2023-01-18T19:46:53.074Z,28.50
2023-01-18T19:49:25.862Z,28.10
2023-01-18T19:51:58.077Z,27.93
2023-01-18T19:54:31.663Z,30.17
2023-01-18T19:57:04.838Z,28.77
2023-01-18T19:59:36.283Z,28.30
2023-01-18T20:02:08.403Z,29.57
2023-01-18T20:04:42.990Z,29.70
2023-01-18T20:07:17.536Z,30.07
2023-01-18T20:09:50.208Z,29.60
2023-01-18T20:12:25.137Z,30.33
2023-01-18T20:14:57.621Z,30.57
2023-01-18T20:17:28.526Z,29.47
2023-01-18T20:20:02.120Z,28.77
2023-01-18T20:22:34.023Z,27.67
2023-01-18T20:25:12.022Z,28.37
2023-01-18T20:27:43.463Z,27.43
2023-01-18T20:30:18.322Z,28.37
2023-01-18T20:32:51.951Z,28.37
2023-01-18T20:35:23.363Z,28.43
2023-01-18T20:37:57.695Z,27.20
2023-01-18T20:40:34.753Z,26.20
2023-01-18T20:43:08.992Z,26.23
2023-01-18T20:45:41.902Z,25.23
2023-01-18T20:48:14.861Z,24.30
2023-01-18T20:50:45.788Z,24.53
2023-01-18T20:53:18.931Z,24.90
2023-01-18T20:55:54.015Z,23.83
2023-01-18T20:58:24.082Z,23.73
2023-01-18T21:00:58.658Z,24.60
2023-01-18T21:03:31.899Z,24.53
2023-01-18T21:06:01.740Z,23.70
2023-01-18T21:08:33.929Z,24.50
2023-01-18T21:11:07.614Z,22.93
2023-01-18T21:13:40.165Z,22.73
2023-01-18T21:16:12.891Z,24.37
2023-01-18T21:18:46.044Z,23.70
2023-01-18T21:21:15.483Z,22.83
2023-01-18T21:23:45.426Z,23.17
2023-01-18T21:26:16.315Z,23.53
2023-01-18T21:28:46.116Z,24.40
2023-01-18T21:31:15.780Z,23.60
2023-01-18T21:33:48.509Z,22.90
2023-01-18T21:36:21.420Z,23.93
2023-01-18T21:38:51.183Z,22.43
2023-01-18T21:41:39.643Z,22.57
2023-01-18T21:44:28.385Z,26.20
2023-01-18T21:46:59.021Z,22.60
2023-01-18T21:50:16.159Z,23.00
2023-01-18T21:52:56.352Z,21.77
2023-01-18T21:55:25.809Z,23.37
2023-01-18T21:58:13.643Z,22.07
2023-01-18T22:00:43.884Z,23.00
2023-01-18T22:03:15.384Z,23.37
2023-01-18T22:05:47.558Z,23.80
2023-01-18T22:08:16.720Z,23.77
2023-01-18T22:10:48.136Z,23.90
2023-01-18T22:13:19.517Z,24.47
2023-01-18T22:15:48.957Z,24.00
2023-01-18T22:18:18.244Z,23.10
2023-01-18T22:20:59.522Z,23.33
2023-01-18T22:23:29.704Z,23.17
2023-01-18T22:25:58.883Z,23.27
2023-01-18T22:28:29.522Z,23.20
2023-01-18T22:30:59.117Z,23.03
2023-01-18T22:33:31.973Z,23.43
2023-01-18T22:36:01.982Z,24.13
2023-01-18T22:38:31.192Z,23.83
2023-01-18T22:41:06.471Z,23.87
2023-01-18T22:43:38.423Z,25.30
2023-01-18T22:46:08.689Z,24.27
2023-01-18T22:48:38.932Z,24.57
2023-01-18T22:51:08.806Z,24.17
2023-01-18T22:53:38.538Z,23.43
2023-01-18T22:56:09.706Z,24.83
2023-01-18T22:58:40.222Z,23.37
2023-01-18T23:01:16.882Z,24.10
2023-01-18T23:03:46.875Z,27.93
2023-01-18T23:06:16.163Z,24.57
2023-01-18T23:08:46.045Z,22.13
2023-01-18T23:11:17.217Z,23.93
2023-01-18T23:14:10.440Z,23.63
2023-01-18T23:16:53.968Z,23.70
2023-01-18T23:19:25.224Z,24.17
2023-01-18T23:21:55.421Z,23.90
2023-01-18T23:24:25.003Z,23.43
2023-01-18T23:26:54.015Z,23.00
2023-01-18T23:29:24.599Z,22.70
2023-01-18T23:31:53.638Z,28.00
2023-01-18T23:34:22.759Z,23.23
2023-01-18T23:36:51.914Z,22.70
2023-01-18T23:39:38.153Z,24.30
2023-01-18T23:42:25.245Z,24.30
2023-01-18T23:45:13.327Z,23.60
2023-01-18T23:47:59.897Z,24.30
2023-01-18T23:50:46.341Z,22.83
2023-01-18T23:53:33.165Z,25.13
2023-01-18T23:56:02.417Z,24.17
2023-01-18T23:58:31.620Z,23.27
